sensor_id;sensor_type;location;lat;lon;timestamp;temperature;humidity
1476;DHT22;730;48.870;12.542;2022-10-16T00:01:20;16.30;19.70
1476;DHT22;730;48.870;12.542;2022-10-16T00:03:47;16.30;19.30
1476;DHT22;730;48.870;12.542;2022-10-16T00:06:14;16.30;19.40
1476;DHT22;730;48.870;12.542;2022-10-16T00:08:39;16.30;19.30
1476;DHT22;730;48.870;12.542;2022-10-16T00:11:11;16.30;19.30
1476;DHT22;730;48.870;12.542;2022-10-16T00:13:39;16.30;19.10
1476;DHT22;730;48.870;12.542;2022-10-16T00:16:06;16.30;19.00
1476;DHT22;730;48.870;12.542;2022-10-16T00:18:32;16.30;18.90
1476;DHT22;730;48.870;12.542;2022-10-16T00:21:12;16.30;18.70
1476;DHT22;730;48.870;12.542;2022-10-16T00:23:38;16.30;18.60
1476;DHT22;730;48.870;12.542;2022-10-16T00:26:07;16.30;18.50
1476;DHT22;730;48.870;12.542;2022-10-16T00:28:33;16.30;18.50
1476;DHT22;730;48.870;12.542;2022-10-16T00:30:58;16.30;18.30
1476;DHT22;730;48.870;12.542;2022-10-16T00:33:24;16.30;18.30
1476;DHT22;730;48.870;12.542;2022-10-16T00:35:50;16.30;18.00
1476;DHT22;730;48.870;12.542;2022-10-16T00:38:16;16.30;17.80
1476;DHT22;730;48.870;12.542;2022-10-16T00:40:42;16.30;17.80
1476;DHT22;730;48.870;12.542;2022-10-16T00:46:35;16.30;17.70
1476;DHT22;730;48.870;12.542;2022-10-16T00:49:13;16.20;17.60
1476;DHT22;730;48.870;12.542;2022-10-16T00:51:41;16.20;18.00
1476;DHT22;730;48.870;12.542;2022-10-16T00:54:20;16.20;18.10
1476;DHT22;730;48.870;12.542;2022-10-16T00:56:48;16.10;18.40
1476;DHT22;730;48.870;12.542;2022-10-16T00:59:24;16.10;18.80
1476;DHT22;730;48.870;12.542;2022-10-16T01:01:51;16.00;19.00
1476;DHT22;730;48.870;12.542;2022-10-16T01:04:17;16.00;19.30
1476;DHT22;730;48.870;12.542;2022-10-16T01:06:50;16.00;19.60
1476;DHT22;730;48.870;12.542;2022-10-16T01:09:40;16.00;19.40
1476;DHT22;730;48.870;12.542;2022-10-16T01:14:54;16.00;19.00
1476;DHT22;730;48.870;12.542;2022-10-16T01:20:14;16.00;19.00
1476;DHT22;730;48.870;12.542;2022-10-16T01:28:18;15.90;18.90
1476;DHT22;730;48.870;12.542;2022-10-16T01:30:46;15.90;19.00
1476;DHT22;730;48.870;12.542;2022-10-16T01:33:26;15.90;19.00
1476;DHT22;730;48.870;12.542;2022-10-16T01:35:58;15.80;19.30
1476;DHT22;730;48.870;12.542;2022-10-16T01:38:35;15.80;19.30
1476;DHT22;730;48.870;12.542;2022-10-16T01:41:45;15.70;20.00
1476;DHT22;730;48.870;12.542;2022-10-16T01:44:22;15.70;20.20
1476;DHT22;730;48.870;12.542;2022-10-16T01:46:52;15.70;20.90
1476;DHT22;730;48.870;12.542;2022-10-16T01:49:18;15.60;21.00
1476;DHT22;730;48.870;12.542;2022-10-16T01:51:48;15.60;21.80
1476;DHT22;730;48.870;12.542;2022-10-16T01:54:16;15.60;22.50
1476;DHT22;730;48.870;12.542;2022-10-16T01:56:44;15.60;22.70
1476;DHT22;730;48.870;12.542;2022-10-16T01:59:14;15.60;22.50
1476;DHT22;730;48.870;12.542;2022-10-16T02:01:44;15.60;22.40
1476;DHT22;730;48.870;12.542;2022-10-16T02:07:01;15.60;22.30
1476;DHT22;730;48.870;12.542;2022-10-16T02:09:26;15.60;22.20
1476;DHT22;730;48.870;12.542;2022-10-16T02:11:54;15.60;21.90
1476;DHT22;730;48.870;12.542;2022-10-16T02:14:21;15.60;21.70
1476;DHT22;730;48.870;12.542;2022-10-16T02:16:49;15.60;21.30
1476;DHT22;730;48.870;12.542;2022-10-16T02:19:16;15.60;20.80
1476;DHT22;730;48.870;12.542;2022-10-16T02:22:06;15.60;20.70
1476;DHT22;730;48.870;12.542;2022-10-16T02:24:34;15.60;20.70
1476;DHT22;730;48.870;12.542;2022-10-16T02:27:14;15.60;20.50
1476;DHT22;730;48.870;12.542;2022-10-16T02:29:46;15.60;20.80
1476;DHT22;730;48.870;12.542;2022-10-16T02:32:18;15.60;20.40
1476;DHT22;730;48.870;12.542;2022-10-16T02:34:46;15.60;20.20
1476;DHT22;730;48.870;12.542;2022-10-16T02:37:13;15.50;20.00
1476;DHT22;730;48.870;12.542;2022-10-16T02:39:40;15.50;20.30
1476;DHT22;730;48.870;12.542;2022-10-16T02:42:13;15.50;19.80
1476;DHT22;730;48.870;12.542;2022-10-16T02:44:39;15.50;19.40
1476;DHT22;730;48.870;12.542;2022-10-16T02:47:05;15.50;19.40
1476;DHT22;730;48.870;12.542;2022-10-16T02:49:31;15.40;19.60
1476;DHT22;730;48.870;12.542;2022-10-16T02:51:57;15.50;19.70
1476;DHT22;730;48.870;12.542;2022-10-16T02:54:22;15.40;19.40
1476;DHT22;730;48.870;12.542;2022-10-16T02:56:49;15.40;20.20
1476;DHT22;730;48.870;12.542;2022-10-16T02:59:15;15.30;19.80
1476;DHT22;730;48.870;12.542;2022-10-16T03:01:40;15.20;20.40
1476;DHT22;730;48.870;12.542;2022-10-16T03:04:06;15.30;20.60
1476;DHT22;730;48.870;12.542;2022-10-16T03:06:31;15.20;20.80
1476;DHT22;730;48.870;12.542;2022-10-16T03:08:57;15.20;20.70
1476;DHT22;730;48.870;12.542;2022-10-16T03:11:22;15.20;20.70
1476;DHT22;730;48.870;12.542;2022-10-16T03:13:48;15.20;20.40
1476;DHT22;730;48.870;12.542;2022-10-16T03:16:14;15.10;20.60
1476;DHT22;730;48.870;12.542;2022-10-16T03:18:39;15.10;20.60
1476;DHT22;730;48.870;12.542;2022-10-16T03:21:05;15.00;21.00
1476;DHT22;730;48.870;12.542;2022-10-16T03:23:30;15.00;21.50
1476;DHT22;730;48.870;12.542;2022-10-16T03:25:56;15.00;22.30
1476;DHT22;730;48.870;12.542;2022-10-16T03:28:21;14.90;23.10
1476;DHT22;730;48.870;12.542;2022-10-16T03:30:47;15.00;23.60
1476;DHT22;730;48.870;12.542;2022-10-16T03:33:13;14.90;23.20
1476;DHT22;730;48.870;12.542;2022-10-16T03:35:38;14.90;24.00
1476;DHT22;730;48.870;12.542;2022-10-16T03:38:04;14.80;24.20
1476;DHT22;730;48.870;12.542;2022-10-16T03:40:29;14.80;24.10
1476;DHT22;730;48.870;12.542;2022-10-16T03:42:57;14.80;24.90
1476;DHT22;730;48.870;12.542;2022-10-16T03:45:23;14.80;25.00
1476;DHT22;730;48.870;12.542;2022-10-16T03:47:49;14.80;25.20
1476;DHT22;730;48.870;12.542;2022-10-16T03:50:15;14.90;25.20
1476;DHT22;730;48.870;12.542;2022-10-16T03:52:41;14.80;25.20
1476;DHT22;730;48.870;12.542;2022-10-16T03:55:07;14.80;25.80
1476;DHT22;730;48.870;12.542;2022-10-16T03:57:33;14.80;24.90
1476;DHT22;730;48.870;12.542;2022-10-16T03:59:58;14.80;24.50
1476;DHT22;730;48.870;12.542;2022-10-16T04:02:25;14.80;24.90
1476;DHT22;730;48.870;12.542;2022-10-16T04:04:51;14.80;23.80
1476;DHT22;730;48.870;12.542;2022-10-16T04:07:17;14.80;23.40
1476;DHT22;730;48.870;12.542;2022-10-16T04:09:43;14.80;22.90
1476;DHT22;730;48.870;12.542;2022-10-16T04:12:09;14.80;22.50
1476;DHT22;730;48.870;12.542;2022-10-16T04:14:34;14.80;21.80
1476;DHT22;730;48.870;12.542;2022-10-16T04:17:00;14.80;22.00
1476;DHT22;730;48.870;12.542;2022-10-16T04:19:26;14.80;21.90
1476;DHT22;730;48.870;12.542;2022-10-16T04:21:51;14.70;22.10
1476;DHT22;730;48.870;12.542;2022-10-16T04:24:17;14.70;22.30
1476;DHT22;730;48.870;12.542;2022-10-16T04:26:43;14.70;22.70
1476;DHT22;730;48.870;12.542;2022-10-16T04:29:08;14.70;23.00
1476;DHT22;730;48.870;12.542;2022-10-16T04:31:34;14.70;23.20
1476;DHT22;730;48.870;12.542;2022-10-16T04:33:59;14.60;23.60
1476;DHT22;730;48.870;12.542;2022-10-16T04:36:25;14.50;23.80
1476;DHT22;730;48.870;12.542;2022-10-16T04:38:50;14.50;24.40
1476;DHT22;730;48.870;12.542;2022-10-16T04:41:16;14.50;24.10
1476;DHT22;730;48.870;12.542;2022-10-16T04:43:42;14.50;24.70
1476;DHT22;730;48.870;12.542;2022-10-16T04:46:07;14.50;24.70
1476;DHT22;730;48.870;12.542;2022-10-16T04:48:33;14.50;25.10
1476;DHT22;730;48.870;12.542;2022-10-16T04:50:59;14.50;25.00
1476;DHT22;730;48.870;12.542;2022-10-16T04:53:24;14.50;24.90
1476;DHT22;730;48.870;12.542;2022-10-16T04:55:50;14.60;24.70
1476;DHT22;730;48.870;12.542;2022-10-16T04:58:16;14.60;24.50
1476;DHT22;730;48.870;12.542;2022-10-16T05:00:42;14.60;24.50
1476;DHT22;730;48.870;12.542;2022-10-16T05:03:07;14.60;24.50
1476;DHT22;730;48.870;12.542;2022-10-16T05:05:34;14.60;24.50
1476;DHT22;730;48.870;12.542;2022-10-16T05:08:00;14.60;24.20
1476;DHT22;730;48.870;12.542;2022-10-16T05:10:26;14.50;24.60
1476;DHT22;730;48.870;12.542;2022-10-16T05:12:52;14.50;24.50
1476;DHT22;730;48.870;12.542;2022-10-16T05:15:18;14.50;24.70
1476;DHT22;730;48.870;12.542;2022-10-16T05:17:44;14.50;25.00
1476;DHT22;730;48.870;12.542;2022-10-16T05:20:10;14.50;24.90
1476;DHT22;730;48.870;12.542;2022-10-16T05:22:35;14.50;25.20
1476;DHT22;730;48.870;12.542;2022-10-16T05:25:01;14.50;25.40
1476;DHT22;730;48.870;12.542;2022-10-16T05:27:26;14.50;25.40
1476;DHT22;730;48.870;12.542;2022-10-16T05:29:52;14.50;25.50
1476;DHT22;730;48.870;12.542;2022-10-16T05:32:18;14.50;25.60
1476;DHT22;730;48.870;12.542;2022-10-16T05:34:45;14.50;25.50
1476;DHT22;730;48.870;12.542;2022-10-16T05:37:11;14.50;25.50
1476;DHT22;730;48.870;12.542;2022-10-16T05:39:37;14.50;24.70
1476;DHT22;730;48.870;12.542;2022-10-16T05:42:04;14.50;24.50
1476;DHT22;730;48.870;12.542;2022-10-16T05:44:30;14.40;24.00
1476;DHT22;730;48.870;12.542;2022-10-16T05:46:55;14.50;24.30
1476;DHT22;730;48.870;12.542;2022-10-16T05:49:21;14.40;24.50
1476;DHT22;730;48.870;12.542;2022-10-16T05:51:47;14.40;25.00
1476;DHT22;730;48.870;12.542;2022-10-16T05:54:12;14.40;25.30
1476;DHT22;730;48.870;12.542;2022-10-16T05:56:38;14.40;25.40
1476;DHT22;730;48.870;12.542;2022-10-16T05:59:04;14.40;25.40
1476;DHT22;730;48.870;12.542;2022-10-16T06:01:30;14.40;25.80
1476;DHT22;730;48.870;12.542;2022-10-16T06:03:56;14.40;25.40
1476;DHT22;730;48.870;12.542;2022-10-16T06:06:25;14.40;24.80
1476;DHT22;730;48.870;12.542;2022-10-16T06:08:52;14.40;24.70
1476;DHT22;730;48.870;12.542;2022-10-16T06:11:30;14.40;25.20
1476;DHT22;730;48.870;12.542;2022-10-16T06:13:58;14.40;25.60
1476;DHT22;730;48.870;12.542;2022-10-16T06:16:25;14.30;25.90
1476;DHT22;730;48.870;12.542;2022-10-16T06:18:55;14.30;26.50
1476;DHT22;730;48.870;12.542;2022-10-16T06:21:23;14.30;27.10
1476;DHT22;730;48.870;12.542;2022-10-16T06:23:53;14.30;27.50
1476;DHT22;730;48.870;12.542;2022-10-16T06:26:20;14.40;29.10
1476;DHT22;730;48.870;12.542;2022-10-16T06:28:47;14.50;29.00
1476;DHT22;730;48.870;12.542;2022-10-16T06:31:14;14.50;28.00
1476;DHT22;730;48.870;12.542;2022-10-16T06:33:40;14.60;26.80
1476;DHT22;730;48.870;12.542;2022-10-16T06:36:08;14.70;25.50
1476;DHT22;730;48.870;12.542;2022-10-16T06:38:35;14.70;24.90
1476;DHT22;730;48.870;12.542;2022-10-16T06:41:01;14.80;24.00
1476;DHT22;730;48.870;12.542;2022-10-16T06:43:29;14.90;23.20
1476;DHT22;730;48.870;12.542;2022-10-16T06:45:58;14.90;22.30
1476;DHT22;730;48.870;12.542;2022-10-16T06:48:24;14.90;22.00
1476;DHT22;730;48.870;12.542;2022-10-16T06:51:00;15.00;21.30
1476;DHT22;730;48.870;12.542;2022-10-16T06:53:27;15.00;21.50
1476;DHT22;730;48.870;12.542;2022-10-16T06:55:54;15.10;22.10
1476;DHT22;730;48.870;12.542;2022-10-16T06:58:20;15.20;21.90
1476;DHT22;730;48.870;12.542;2022-10-16T07:00:46;15.30;22.60
1476;DHT22;730;48.870;12.542;2022-10-16T07:03:12;15.40;20.00
1476;DHT22;730;48.870;12.542;2022-10-16T07:05:42;15.50;18.40
1476;DHT22;730;48.870;12.542;2022-10-16T07:08:07;15.50;17.50
1476;DHT22;730;48.870;12.542;2022-10-16T07:10:33;15.50;17.10
1476;DHT22;730;48.870;12.542;2022-10-16T07:12:59;15.60;17.50
1476;DHT22;730;48.870;12.542;2022-10-16T07:15:25;15.70;17.20
1476;DHT22;730;48.870;12.542;2022-10-16T07:17:51;15.70;17.70
1476;DHT22;730;48.870;12.542;2022-10-16T07:20:17;15.80;18.30
1476;DHT22;730;48.870;12.542;2022-10-16T07:22:43;15.90;17.10
1476;DHT22;730;48.870;12.542;2022-10-16T07:25:08;16.00;15.60
1476;DHT22;730;48.870;12.542;2022-10-16T07:27:34;16.10;15.20
1476;DHT22;730;48.870;12.542;2022-10-16T07:30:00;16.20;15.10
1476;DHT22;730;48.870;12.542;2022-10-16T07:32:26;16.30;14.70
1476;DHT22;730;48.870;12.542;2022-10-16T07:34:52;16.50;15.40
1476;DHT22;730;48.870;12.542;2022-10-16T07:37:18;16.70;14.10
1476;DHT22;730;48.870;12.542;2022-10-16T07:39:43;16.90;12.00
1476;DHT22;730;48.870;12.542;2022-10-16T07:42:09;17.10;11.50
1476;DHT22;730;48.870;12.542;2022-10-16T07:44:34;17.30;10.80
1476;DHT22;730;48.870;12.542;2022-10-16T07:47:00;17.70;8.30
1476;DHT22;730;48.870;12.542;2022-10-16T07:49:25;17.90;6.50
1476;DHT22;730;48.870;12.542;2022-10-16T07:51:51;18.00;2.30
1476;DHT22;730;48.870;12.542;2022-10-16T07:54:17;18.00;1.70
1476;DHT22;730;48.870;12.542;2022-10-16T07:56:42;18.00;2.40
1476;DHT22;730;48.870;12.542;2022-10-16T07:59:08;18.10;3.10
1476;DHT22;730;48.870;12.542;2022-10-16T08:01:34;18.10;1.80
1476;DHT22;730;48.870;12.542;2022-10-16T08:03:59;18.20;2.70
1476;DHT22;730;48.870;12.542;2022-10-16T08:06:25;18.40;1.80
1476;DHT22;730;48.870;12.542;2022-10-16T08:08:51;18.50;1.00
1476;DHT22;730;48.870;12.542;2022-10-16T08:11:17;18.80;1.00
1476;DHT22;730;48.870;12.542;2022-10-16T08:13:42;19.00;1.00
1476;DHT22;730;48.870;12.542;2022-10-16T08:16:08;19.10;1.00
1476;DHT22;730;48.870;12.542;2022-10-16T08:18:36;19.30;1.00
1476;DHT22;730;48.870;12.542;2022-10-16T08:21:02;19.50;1.00
1476;DHT22;730;48.870;12.542;2022-10-16T08:23:28;19.70;1.00
1476;DHT22;730;48.870;12.542;2022-10-16T08:25:55;19.90;1.00
1476;DHT22;730;48.870;12.542;2022-10-16T08:28:22;20.10;1.00
1476;DHT22;730;48.870;12.542;2022-10-16T08:30:48;20.30;1.00
1476;DHT22;730;48.870;12.542;2022-10-16T08:33:13;20.40;1.00
1476;DHT22;730;48.870;12.542;2022-10-16T08:35:39;20.60;1.00
1476;DHT22;730;48.870;12.542;2022-10-16T08:38:05;20.70;1.00
1476;DHT22;730;48.870;12.542;2022-10-16T08:40:33;20.80;1.00
1476;DHT22;730;48.870;12.542;2022-10-16T08:48:14;21.00;1.00
1476;DHT22;730;48.870;12.542;2022-10-16T08:50:42;21.20;1.00
1476;DHT22;730;48.870;12.542;2022-10-16T08:53:16;21.40;1.00
1476;DHT22;730;48.870;12.542;2022-10-16T08:55:46;21.40;1.00
1476;DHT22;730;48.870;12.542;2022-10-16T08:58:16;21.30;1.00
1476;DHT22;730;48.870;12.542;2022-10-16T09:00:44;21.20;1.00
1476;DHT22;730;48.870;12.542;2022-10-16T09:06:04;20.90;1.00
1476;DHT22;730;48.870;12.542;2022-10-16T09:11:19;20.80;1.00
1476;DHT22;730;48.870;12.542;2022-10-16T09:16:35;21.00;1.00
1476;DHT22;730;48.870;12.542;2022-10-16T09:19:12;21.10;1.00
1476;DHT22;730;48.870;12.542;2022-10-16T09:21:42;21.40;1.00
1476;DHT22;730;48.870;12.542;2022-10-16T09:24:17;21.60;1.00
1476;DHT22;730;48.870;12.542;2022-10-16T09:26:44;21.70;1.00
1476;DHT22;730;48.870;12.542;2022-10-16T09:29:18;21.80;1.00
1476;DHT22;730;48.870;12.542;2022-10-16T09:31:47;22.00;1.00
1476;DHT22;730;48.870;12.542;2022-10-16T09:34:32;22.20;1.00
1476;DHT22;730;48.870;12.542;2022-10-16T09:37:05;22.30;1.00
1476;DHT22;730;48.870;12.542;2022-10-16T09:39:48;22.40;1.00
1476;DHT22;730;48.870;12.542;2022-10-16T09:42:28;22.60;1.00
1476;DHT22;730;48.870;12.542;2022-10-16T09:44:56;22.70;1.00
1476;DHT22;730;48.870;12.542;2022-10-16T09:47:23;23.00;1.00
1476;DHT22;730;48.870;12.542;2022-10-16T09:49:59;23.10;1.00
1476;DHT22;730;48.870;12.542;2022-10-16T09:52:28;23.20;1.00
1476;DHT22;730;48.870;12.542;2022-10-16T09:55:15;23.20;1.00
1476;DHT22;730;48.870;12.542;2022-10-16T09:57:54;23.10;1.00
1476;DHT22;730;48.870;12.542;2022-10-16T10:00:21;23.20;1.00
1476;DHT22;730;48.870;12.542;2022-10-16T10:02:47;23.20;1.00
1476;DHT22;730;48.870;12.542;2022-10-16T10:07:45;23.50;1.00
1476;DHT22;730;48.870;12.542;2022-10-16T10:10:23;23.60;1.00
1476;DHT22;730;48.870;12.542;2022-10-16T10:12:49;23.60;1.00
1476;DHT22;730;48.870;12.542;2022-10-16T10:15:15;23.70;1.00
1476;DHT22;730;48.870;12.542;2022-10-16T10:17:56;23.80;1.00
1476;DHT22;730;48.870;12.542;2022-10-16T10:22:51;24.20;1.00
1476;DHT22;730;48.870;12.542;2022-10-16T10:36:56;24.80;1.00
1476;DHT22;730;48.870;12.542;2022-10-16T10:39:35;24.90;1.00
1476;DHT22;730;48.870;12.542;2022-10-16T10:45:15;25.20;1.00
1476;DHT22;730;48.870;12.542;2022-10-16T10:50:47;25.40;1.00
1476;DHT22;730;48.870;12.542;2022-10-16T10:59:12;25.40;1.00
1476;DHT22;730;48.870;12.542;2022-10-16T11:01:48;25.50;1.00
1476;DHT22;730;48.870;12.542;2022-10-16T11:04:32;25.80;1.00
1476;DHT22;730;48.870;12.542;2022-10-16T11:07:02;26.00;1.00
1476;DHT22;730;48.870;12.542;2022-10-16T11:09:40;26.20;1.00
1476;DHT22;730;48.870;12.542;2022-10-16T11:12:15;26.50;1.00
1476;DHT22;730;48.870;12.542;2022-10-16T11:17:28;26.90;1.00
1476;DHT22;730;48.870;12.542;2022-10-16T11:20:37;27.20;1.00
1476;DHT22;730;48.870;12.542;2022-10-16T11:23:16;27.50;1.00
1476;DHT22;730;48.870;12.542;2022-10-16T11:25:44;27.70;1.00
1476;DHT22;730;48.870;12.542;2022-10-16T11:31:21;27.90;1.00
1476;DHT22;730;48.870;12.542;2022-10-16T11:34:52;28.10;1.00
1476;DHT22;730;48.870;12.542;2022-10-16T11:37:12;28.50;1.00
1476;DHT22;730;48.870;12.542;2022-10-16T11:39:39;28.90;1.00
1476;DHT22;730;48.870;12.542;2022-10-16T11:42:13;29.20;1.00
1476;DHT22;730;48.870;12.542;2022-10-16T11:45:02;29.50;1.00
1476;DHT22;730;48.870;12.542;2022-10-16T11:55:45;31.60;1.00
1476;DHT22;730;48.870;12.542;2022-10-16T12:06:42;34.10;1.00
1476;DHT22;730;48.870;12.542;2022-10-16T12:09:21;34.60;1.00
1476;DHT22;730;48.870;12.542;2022-10-16T12:11:48;35.20;1.00
1476;DHT22;730;48.870;12.542;2022-10-16T12:16:52;35.40;1.00
1476;DHT22;730;48.870;12.542;2022-10-16T12:19:20;35.40;1.00
1476;DHT22;730;48.870;12.542;2022-10-16T12:21:46;35.50;1.00
1476;DHT22;730;48.870;12.542;2022-10-16T12:24:36;35.70;1.00
1476;DHT22;730;48.870;12.542;2022-10-16T12:27:04;36.10;1.00
1476;DHT22;730;48.870;12.542;2022-10-16T12:29:40;36.00;1.00
1476;DHT22;730;48.870;12.542;2022-10-16T12:32:33;35.50;1.00
1476;DHT22;730;48.870;12.542;2022-10-16T12:35:03;34.90;1.00
1476;DHT22;730;48.870;12.542;2022-10-16T12:37:36;34.40;1.00
1476;DHT22;730;48.870;12.542;2022-10-16T12:42:50;33.30;1.00
1476;DHT22;730;48.870;12.542;2022-10-16T12:45:32;32.70;1.00
1476;DHT22;730;48.870;12.542;2022-10-16T12:48:01;32.10;1.00
1476;DHT22;730;48.870;12.542;2022-10-16T12:50:38;31.60;1.00
1476;DHT22;730;48.870;12.542;2022-10-16T12:53:18;31.20;1.00
1476;DHT22;730;48.870;12.542;2022-10-16T12:58:34;30.50;1.00
1476;DHT22;730;48.870;12.542;2022-10-16T13:06:45;32.00;1.00
1476;DHT22;730;48.870;12.542;2022-10-16T13:09:40;32.50;1.00
1476;DHT22;730;48.870;12.542;2022-10-16T13:23:08;36.50;1.00
1476;DHT22;730;48.870;12.542;2022-10-16T13:28:50;37.90;1.00
1476;DHT22;730;48.870;12.542;2022-10-16T13:31:20;38.70;1.00
1476;DHT22;730;48.870;12.542;2022-10-16T13:33:49;38.90;1.00
1476;DHT22;730;48.870;12.542;2022-10-16T13:36:35;38.50;1.00
1476;DHT22;730;48.870;12.542;2022-10-16T13:41:36;37.00;1.00
1476;DHT22;730;48.870;12.542;2022-10-16T13:44:02;35.90;1.00
1476;DHT22;730;48.870;12.542;2022-10-16T13:46:27;34.80;1.00
1476;DHT22;730;48.870;12.542;2022-10-16T13:49:32;33.60;1.00
1476;DHT22;730;48.870;12.542;2022-10-16T13:51:56;32.40;1.00
1476;DHT22;730;48.870;12.542;2022-10-16T13:54:23;31.10;1.00
1476;DHT22;730;48.870;12.542;2022-10-16T13:56:49;30.20;1.00
1476;DHT22;730;48.870;12.542;2022-10-16T13:59:25;29.50;1.00
1476;DHT22;730;48.870;12.542;2022-10-16T14:01:53;28.90;1.00
1476;DHT22;730;48.870;12.542;2022-10-16T14:04:20;28.50;1.00
1476;DHT22;730;48.870;12.542;2022-10-16T14:06:49;28.80;1.00
1476;DHT22;730;48.870;12.542;2022-10-16T14:09:25;30.10;1.00
1476;DHT22;730;48.870;12.542;2022-10-16T14:12:01;31.80;1.00
1476;DHT22;730;48.870;12.542;2022-10-16T14:14:34;33.40;1.00
1476;DHT22;730;48.870;12.542;2022-10-16T14:17:00;34.50;1.00
1476;DHT22;730;48.870;12.542;2022-10-16T14:19:29;35.20;1.00
1476;DHT22;730;48.870;12.542;2022-10-16T14:21:56;35.80;1.00
1476;DHT22;730;48.870;12.542;2022-10-16T14:24:42;36.30;1.00
1476;DHT22;730;48.870;12.542;2022-10-16T14:27:34;36.70;1.00
1476;DHT22;730;48.870;12.542;2022-10-16T14:30:13;36.80;1.00
1476;DHT22;730;48.870;12.542;2022-10-16T14:32:41;36.90;1.00
1476;DHT22;730;48.870;12.542;2022-10-16T14:35:26;37.10;1.00
1476;DHT22;730;48.870;12.542;2022-10-16T14:37:56;36.70;1.00
1476;DHT22;730;48.870;12.542;2022-10-16T14:40:25;36.40;1.00
1476;DHT22;730;48.870;12.542;2022-10-16T14:42:51;36.30;1.00
1476;DHT22;730;48.870;12.542;2022-10-16T14:45:23;36.20;1.00
1476;DHT22;730;48.870;12.542;2022-10-16T14:48:01;35.90;1.00
1476;DHT22;730;48.870;12.542;2022-10-16T14:50:28;35.50;1.00
1476;DHT22;730;48.870;12.542;2022-10-16T14:52:54;35.20;1.00
1476;DHT22;730;48.870;12.542;2022-10-16T14:55:20;34.90;1.00
1476;DHT22;730;48.870;12.542;2022-10-16T14:57:46;34.80;1.00
1476;DHT22;730;48.870;12.542;2022-10-16T15:00:23;34.50;1.00
1476;DHT22;730;48.870;12.542;2022-10-16T15:02:50;33.90;1.00
1476;DHT22;730;48.870;12.542;2022-10-16T15:05:21;33.40;1.00
1476;DHT22;730;48.870;12.542;2022-10-16T15:07:48;32.70;1.00
1476;DHT22;730;48.870;12.542;2022-10-16T15:10:15;32.10;1.00
1476;DHT22;730;48.870;12.542;2022-10-16T15:12:41;31.40;1.00
1476;DHT22;730;48.870;12.542;2022-10-16T15:15:33;30.70;1.00
1476;DHT22;730;48.870;12.542;2022-10-16T15:17:59;30.20;1.00
1476;DHT22;730;48.870;12.542;2022-10-16T15:20:32;29.80;1.00
1476;DHT22;730;48.870;12.542;2022-10-16T15:23:03;29.50;1.00
1476;DHT22;730;48.870;12.542;2022-10-16T15:28:01;29.10;1.00
1476;DHT22;730;48.870;12.542;2022-10-16T15:30:27;29.10;1.00
1476;DHT22;730;48.870;12.542;2022-10-16T15:32:53;28.90;1.00
1476;DHT22;730;48.870;12.542;2022-10-16T15:35:19;28.70;1.00
1476;DHT22;730;48.870;12.542;2022-10-16T15:37:46;28.50;1.00
1476;DHT22;730;48.870;12.542;2022-10-16T15:40:12;28.30;1.00
1476;DHT22;730;48.870;12.542;2022-10-16T15:42:37;27.90;1.00
1476;DHT22;730;48.870;12.542;2022-10-16T15:45:03;27.60;1.00
1476;DHT22;730;48.870;12.542;2022-10-16T15:47:29;27.30;1.00
1476;DHT22;730;48.870;12.542;2022-10-16T15:49:55;26.90;1.00
1476;DHT22;730;48.870;12.542;2022-10-16T15:52:20;26.50;1.00
1476;DHT22;730;48.870;12.542;2022-10-16T15:54:46;26.00;1.00
1476;DHT22;730;48.870;12.542;2022-10-16T15:57:12;25.60;1.00
1476;DHT22;730;48.870;12.542;2022-10-16T15:59:37;25.30;1.00
1476;DHT22;730;48.870;12.542;2022-10-16T16:02:03;25.10;1.00
1476;DHT22;730;48.870;12.542;2022-10-16T16:04:31;24.70;1.00
1476;DHT22;730;48.870;12.542;2022-10-16T16:06:57;24.40;1.00
1476;DHT22;730;48.870;12.542;2022-10-16T16:09:23;24.10;1.00
1476;DHT22;730;48.870;12.542;2022-10-16T16:11:49;23.90;1.00
1476;DHT22;730;48.870;12.542;2022-10-16T16:14:16;23.60;1.00
1476;DHT22;730;48.870;12.542;2022-10-16T16:16:42;23.30;1.00
1476;DHT22;730;48.870;12.542;2022-10-16T16:19:08;23.10;1.00
1476;DHT22;730;48.870;12.542;2022-10-16T16:21:34;22.80;1.00
1476;DHT22;730;48.870;12.542;2022-10-16T16:24:00;22.70;1.00
1476;DHT22;730;48.870;12.542;2022-10-16T16:26:33;22.50;1.00
1476;DHT22;730;48.870;12.542;2022-10-16T16:29:02;22.40;1.00
1476;DHT22;730;48.870;12.542;2022-10-16T16:31:29;22.20;1.00
1476;DHT22;730;48.870;12.542;2022-10-16T16:33:56;22.10;1.00
1476;DHT22;730;48.870;12.542;2022-10-16T16:36:23;21.90;1.00
1476;DHT22;730;48.870;12.542;2022-10-16T16:38:48;21.80;1.00
1476;DHT22;730;48.870;12.542;2022-10-16T16:41:16;21.60;1.00
1476;DHT22;730;48.870;12.542;2022-10-16T16:43:42;21.50;1.00
1476;DHT22;730;48.870;12.542;2022-10-16T16:46:08;21.50;1.00
1476;DHT22;730;48.870;12.542;2022-10-16T16:48:34;21.40;1.00
1476;DHT22;730;48.870;12.542;2022-10-16T16:51:05;21.30;1.00
1476;DHT22;730;48.870;12.542;2022-10-16T16:53:33;21.20;1.00
1476;DHT22;730;48.870;12.542;2022-10-16T16:56:04;21.10;1.00
1476;DHT22;730;48.870;12.542;2022-10-16T16:58:30;21.00;1.00
1476;DHT22;730;48.870;12.542;2022-10-16T17:00:55;20.90;1.00
1476;DHT22;730;48.870;12.542;2022-10-16T17:03:21;20.80;1.00
1476;DHT22;730;48.870;12.542;2022-10-16T17:06:04;20.80;1.00
1476;DHT22;730;48.870;12.542;2022-10-16T17:08:30;20.70;1.00
1476;DHT22;730;48.870;12.542;2022-10-16T17:10:56;20.60;1.00
1476;DHT22;730;48.870;12.542;2022-10-16T17:13:23;20.50;1.00
1476;DHT22;730;48.870;12.542;2022-10-16T17:15:50;20.40;1.00
1476;DHT22;730;48.870;12.542;2022-10-16T17:18:16;20.40;1.00
1476;DHT22;730;48.870;12.542;2022-10-16T17:20:42;20.30;1.00
1476;DHT22;730;48.870;12.542;2022-10-16T17:23:12;20.30;1.00
1476;DHT22;730;48.870;12.542;2022-10-16T17:25:39;20.20;1.00
1476;DHT22;730;48.870;12.542;2022-10-16T17:28:06;20.20;1.00
1476;DHT22;730;48.870;12.542;2022-10-16T17:30:36;20.10;1.00
1476;DHT22;730;48.870;12.542;2022-10-16T17:33:03;20.20;1.00
1476;DHT22;730;48.870;12.542;2022-10-16T17:35:35;20.10;1.00
1476;DHT22;730;48.870;12.542;2022-10-16T17:38:01;20.10;1.00
1476;DHT22;730;48.870;12.542;2022-10-16T17:40:27;19.90;1.00
1476;DHT22;730;48.870;12.542;2022-10-16T17:42:53;19.90;1.00
1476;DHT22;730;48.870;12.542;2022-10-16T17:45:18;19.90;1.00
1476;DHT22;730;48.870;12.542;2022-10-16T17:47:44;19.80;1.00
1476;DHT22;730;48.870;12.542;2022-10-16T17:50:10;19.80;1.00
1476;DHT22;730;48.870;12.542;2022-10-16T17:52:35;19.80;1.00
1476;DHT22;730;48.870;12.542;2022-10-16T17:55:01;19.80;1.00
1476;DHT22;730;48.870;12.542;2022-10-16T17:57:26;19.80;1.00
1476;DHT22;730;48.870;12.542;2022-10-16T17:59:53;19.70;1.00
1476;DHT22;730;48.870;12.542;2022-10-16T18:02:20;19.70;1.00
1476;DHT22;730;48.870;12.542;2022-10-16T18:04:46;19.60;1.00
1476;DHT22;730;48.870;12.542;2022-10-16T18:07:12;19.60;1.00
1476;DHT22;730;48.870;12.542;2022-10-16T18:09:38;19.50;1.00
1476;DHT22;730;48.870;12.542;2022-10-16T18:12:03;19.50;1.00
1476;DHT22;730;48.870;12.542;2022-10-16T18:14:31;19.40;1.00
1476;DHT22;730;48.870;12.542;2022-10-16T18:16:57;19.50;1.00